createdAt,value
2018-06-23T00:01:47.009Z,16.10
2018-06-23T00:04:16.448Z,15.80
2018-06-23T00:06:45.862Z,16.20
2018-06-23T00:09:15.372Z,16.40
2018-06-23T00:11:44.638Z,16.10
2018-06-23T00:14:16.612Z,16.50
2018-06-23T00:16:46.672Z,17.10
2018-06-23T00:19:16.220Z,17.10
2018-06-23T00:21:45.613Z,16.40
2018-06-23T00:24:14.935Z,16.20
2018-06-23T00:26:44.192Z,16.00
2018-06-23T00:29:13.305Z,16.20
2018-06-23T00:31:42.625Z,16.10
2018-06-23T00:34:11.957Z,16.30
2018-06-23T00:36:41.280Z,16.70
2018-06-23T00:39:10.593Z,16.40
2018-06-23T00:41:39.864Z,16.90
2018-06-23T00:44:09.329Z,17.40
2018-06-23T00:46:38.392Z,16.90
2018-06-23T00:49:07.645Z,16.30
2018-06-23T00:51:36.724Z,16.30
2018-06-23T00:54:06.165Z,17.10
2018-06-23T00:56:35.584Z,16.80
2018-06-23T00:59:15.923Z,17.10
2018-06-23T01:01:45.096Z,16.60
2018-06-23T01:04:14.513Z,16.20
2018-06-23T01:06:43.848Z,16.30
2018-06-23T01:09:13.145Z,15.90
2018-06-23T01:11:43.117Z,16.40
2018-06-23T01:14:12.794Z,16.30
2018-06-23T01:16:42.144Z,15.70
2018-06-23T01:19:11.534Z,15.80
2018-06-23T01:21:40.967Z,16.60
2018-06-23T01:24:10.234Z,16.70
2018-06-23T01:26:39.689Z,16.90
2018-06-23T01:29:09.075Z,16.80
2018-06-23T01:31:38.276Z,17.20
2018-06-23T01:34:07.452Z,16.70
2018-06-23T01:36:36.696Z,16.40
2018-06-23T01:39:08.832Z,16.70
2018-06-23T01:41:38.256Z,16.70
2018-06-23T01:44:07.731Z,16.10
2018-06-23T01:46:37.132Z,15.90
2018-06-23T01:49:06.556Z,16.50
2018-06-23T01:51:35.962Z,16.90
2018-06-23T01:54:05.334Z,17.10
2018-06-23T01:56:34.733Z,16.40
2018-06-23T01:59:04.003Z,16.10
2018-06-23T02:01:33.524Z,16.60
2018-06-23T02:04:02.802Z,16.40
2018-06-23T02:06:32.224Z,16.20
2018-06-23T02:09:01.652Z,16.40
2018-06-23T02:11:30.873Z,16.80
2018-06-23T02:14:05.400Z,16.80
2018-06-23T02:16:39.843Z,16.70
2018-06-23T02:19:14.135Z,16.30
2018-06-23T02:21:48.420Z,15.80
2018-06-23T02:24:22.744Z,16.00
2018-06-23T02:26:57.032Z,16.20
2018-06-23T02:29:31.442Z,15.80
2018-06-23T02:32:05.836Z,15.90
2018-06-23T02:34:40.119Z,16.10
2018-06-23T02:37:09.572Z,16.40
2018-06-23T02:39:38.940Z,16.40
2018-06-23T02:42:08.155Z,15.80
2018-06-23T02:44:37.509Z,15.60
2018-06-23T02:47:06.683Z,15.60
2018-06-23T02:49:36.108Z,15.60
2018-06-23T02:52:05.496Z,15.50
2018-06-23T02:54:34.985Z,15.90
2018-06-23T02:57:04.120Z,15.60
2018-06-23T02:59:33.614Z,16.00
2018-06-23T03:02:08.060Z,16.60
2018-06-23T03:04:37.319Z,16.40
2018-06-23T03:07:06.698Z,16.10
2018-06-23T03:09:35.945Z,15.80
2018-06-23T03:12:05.370Z,16.40
2018-06-23T03:14:34.575Z,16.70
2018-06-23T03:17:04.752Z,16.60
2018-06-23T03:19:33.912Z,16.90
2018-06-23T03:22:03.088Z,16.80
2018-06-23T03:24:32.673Z,15.50
2018-06-23T03:27:02.045Z,16.40
2018-06-23T03:29:31.488Z,16.40
2018-06-23T03:32:00.801Z,15.80
2018-06-23T03:36:59.321Z,15.50
2018-06-23T03:39:28.720Z,16.00
2018-06-23T03:41:57.902Z,16.20
2018-06-23T03:44:27.135Z,16.60
2018-06-23T03:46:56.624Z,16.20
2018-06-23T03:49:25.853Z,16.20
2018-06-23T03:51:55.148Z,16.60
2018-06-23T03:54:24.394Z,16.50
2018-06-23T03:56:53.877Z,16.30
2018-06-23T03:59:23.127Z,16.10
2018-06-23T04:01:52.271Z,16.00
2018-06-23T04:04:21.707Z,16.00
2018-06-23T04:06:51.193Z,15.70
2018-06-23T04:09:21.011Z,16.40
2018-06-23T04:11:50.116Z,16.50
2018-06-23T04:14:19.361Z,17.00
2018-06-23T04:16:48.531Z,17.30
2018-06-23T04:19:17.841Z,16.60
2018-06-23T04:21:47.297Z,16.40
2018-06-23T04:24:16.773Z,16.10
2018-06-23T04:26:46.125Z,16.70
2018-06-23T04:29:15.315Z,16.90
2018-06-23T04:31:44.662Z,17.50
2018-06-23T04:34:13.924Z,17.20
2018-06-23T04:36:43.260Z,17.60
2018-06-23T04:39:12.577Z,17.70
2018-06-23T04:41:42.001Z,17.70
2018-06-23T04:44:11.416Z,16.70
2018-06-23T04:46:40.953Z,17.20
2018-06-23T04:49:10.210Z,17.20
2018-06-23T04:51:39.770Z,17.30
2018-06-23T04:54:09.120Z,17.40
2018-06-23T04:56:38.484Z,17.40
2018-06-23T04:59:07.659Z,17.40
2018-06-23T05:01:37.121Z,16.90
2018-06-23T05:04:06.308Z,17.20
2018-06-23T05:06:35.752Z,17.10
2018-06-23T05:09:06.465Z,17.80
2018-06-23T05:11:35.824Z,17.30
2018-06-23T05:14:05.077Z,17.70
2018-06-23T05:16:34.453Z,17.90
2018-06-23T05:19:03.696Z,17.00
2018-06-23T05:21:33.078Z,16.60
2018-06-23T05:24:02.548Z,16.90
2018-06-23T05:26:32.077Z,16.80
2018-06-23T05:29:01.496Z,16.50
2018-06-23T05:31:30.906Z,16.40
2018-06-23T05:34:00.072Z,16.00
2018-06-23T05:36:29.308Z,17.00
2018-06-23T05:38:58.385Z,17.30
2018-06-23T05:41:27.729Z,17.50
2018-06-23T05:43:56.901Z,17.20
2018-06-23T05:46:26.260Z,16.80
2018-06-23T05:48:55.532Z,16.50
2018-06-23T05:51:24.980Z,17.40
2018-06-23T05:53:53.944Z,17.40
2018-06-23T05:56:23.508Z,17.80
2018-06-23T05:58:52.600Z,17.60
2018-06-23T06:01:21.853Z,17.30
2018-06-23T06:03:51.117Z,16.90
2018-06-23T06:06:20.365Z,16.60
2018-06-23T06:08:49.512Z,16.40
2018-06-23T06:11:18.628Z,16.80
2018-06-23T06:13:47.845Z,16.30
2018-06-23T06:16:17.189Z,15.30
2018-06-23T06:18:47.328Z,15.90
2018-06-23T06:21:16.633Z,15.50
2018-06-23T06:23:46.091Z,16.10
2018-06-23T06:26:15.221Z,16.20
2018-06-23T06:28:44.568Z,15.90
2018-06-23T06:31:13.840Z,15.40
2018-06-23T06:33:43.178Z,15.90
2018-06-23T06:36:12.361Z,16.10
2018-06-23T06:38:41.617Z,17.60
2018-06-23T06:41:10.784Z,17.80
2018-06-23T06:43:40.132Z,17.40
2018-06-23T06:46:09.317Z,17.20
2018-06-23T06:48:38.553Z,16.50
2018-06-23T06:51:07.873Z,17.60
2018-06-23T06:53:37.189Z,17.90
2018-06-23T06:56:06.653Z,18.10
2018-06-23T06:58:36.019Z,18.50
2018-06-23T07:01:05.496Z,19.00
2018-06-23T07:03:34.843Z,21.20
2018-06-23T07:06:04.121Z,19.40
2018-06-23T07:08:33.474Z,19.90
2018-06-23T07:11:02.741Z,19.40
2018-06-23T07:13:32.544Z,19.30
2018-06-23T07:16:02.198Z,18.50
2018-06-23T07:18:31.553Z,19.10
2018-06-23T07:21:01.160Z,18.40
2018-06-23T07:23:30.679Z,18.00
2018-06-23T07:26:00.200Z,18.50
2018-06-23T07:28:29.352Z,18.70
2018-06-23T07:30:58.609Z,18.60
2018-06-23T07:33:27.894Z,19.00
2018-06-23T07:35:57.133Z,18.90
2018-06-23T07:38:26.303Z,19.40
2018-06-23T07:40:55.558Z,19.60
2018-06-23T07:43:24.720Z,19.10
2018-06-23T07:45:53.868Z,18.50
2018-06-23T07:48:23.048Z,18.70
2018-06-23T07:50:52.288Z,18.00
2018-06-23T07:53:21.461Z,17.90
2018-06-23T07:55:50.608Z,17.80
2018-06-23T07:58:19.889Z,19.90
2018-06-23T08:00:49.232Z,21.30
2018-06-23T08:03:18.404Z,23.00
2018-06-23T08:05:47.753Z,22.50
2018-06-23T08:08:17.285Z,20.50
2018-06-23T08:10:46.484Z,19.60
2018-06-23T08:13:15.899Z,19.30
2018-06-23T08:15:45.104Z,18.10
2018-06-23T08:18:14.503Z,18.30
2018-06-23T08:20:43.832Z,17.80
2018-06-23T08:23:12.990Z,18.70
2018-06-23T08:28:11.271Z,21.60
2018-06-23T08:30:40.545Z,23.20
2018-06-23T08:33:09.897Z,22.10
2018-06-23T08:35:39.265Z,21.50
2018-06-23T08:38:08.523Z,23.40
2018-06-23T08:40:37.721Z,24.50
2018-06-23T08:43:07.141Z,20.90
2018-06-23T08:45:36.420Z,20.00
2018-06-23T08:48:06.129Z,19.30
2018-06-23T08:50:35.470Z,18.70
2018-06-23T08:53:05.040Z,18.80
2018-06-23T08:55:34.325Z,18.80
2018-06-23T08:58:03.982Z,18.50
2018-06-23T09:00:33.251Z,21.20
2018-06-23T09:03:02.586Z,20.20
2018-06-23T09:05:32.153Z,20.00
2018-06-23T09:08:01.506Z,20.70
2018-06-23T09:10:30.868Z,20.20
2018-06-23T09:13:00.135Z,19.50
2018-06-23T09:15:29.173Z,18.50
2018-06-23T09:17:58.327Z,17.80
2018-06-23T09:20:27.503Z,17.70
2018-06-23T09:22:56.645Z,17.60
2018-06-23T09:25:25.824Z,17.70
2018-06-23T09:27:54.972Z,17.80
2018-06-23T09:30:24.242Z,18.30
2018-06-23T09:32:53.702Z,18.70
2018-06-23T09:35:22.868Z,18.10
2018-06-23T09:37:52.288Z,17.50
2018-06-23T09:40:22.452Z,17.70
2018-06-23T09:42:51.623Z,17.80
2018-06-23T09:45:21.037Z,18.10
2018-06-23T09:47:50.148Z,18.50
2018-06-23T09:50:19.189Z,17.90
2018-06-23T09:52:48.394Z,18.40
2018-06-23T09:55:17.613Z,18.90
2018-06-23T09:57:46.682Z,18.80
2018-06-23T10:00:17.237Z,18.40
2018-06-23T10:02:47.813Z,18.30
2018-06-23T10:05:17.216Z,17.90
2018-06-23T10:07:46.375Z,18.50
2018-06-23T10:10:15.644Z,19.70
2018-06-23T10:12:44.916Z,19.40
2018-06-23T10:15:14.364Z,18.80
2018-06-23T10:17:43.532Z,18.20
2018-06-23T10:20:12.788Z,18.30
2018-06-23T10:22:41.949Z,18.50
2018-06-23T10:25:11.332Z,18.70
2018-06-23T10:27:40.588Z,19.20
2018-06-23T10:30:09.785Z,19.30
2018-06-23T10:32:39.199Z,19.60
2018-06-23T10:35:08.630Z,19.20
2018-06-23T10:37:38.169Z,19.50
2018-06-23T10:40:07.576Z,19.30
2018-06-23T10:42:36.801Z,18.90
2018-06-23T10:45:06.237Z,18.70
2018-06-23T10:47:35.821Z,19.00
2018-06-23T10:50:05.310Z,17.90
2018-06-23T10:52:34.804Z,18.50
2018-06-23T10:55:04.507Z,18.40
2018-06-23T10:57:34.089Z,18.70
2018-06-23T11:00:03.624Z,18.90
2018-06-23T11:02:33.077Z,19.10
2018-06-23T11:05:03.490Z,18.90
2018-06-23T11:07:32.900Z,19.20
2018-06-23T11:10:02.201Z,20.80
2018-06-23T11:12:32.342Z,20.20
2018-06-23T11:15:01.522Z,20.00
2018-06-23T11:17:31.077Z,19.10
2018-06-23T11:20:00.237Z,18.80
2018-06-23T11:22:29.728Z,18.40
2018-06-23T11:24:58.967Z,18.80
2018-06-23T11:27:28.424Z,17.90
2018-06-23T11:29:57.800Z,18.90
2018-06-23T11:32:27.140Z,18.60
2018-06-23T11:34:56.345Z,18.80
2018-06-23T11:37:25.740Z,18.70
2018-06-23T11:39:54.971Z,18.90
2018-06-23T11:42:24.304Z,18.90
2018-06-23T11:44:54.129Z,18.70
2018-06-23T11:47:23.297Z,19.20
2018-06-23T11:49:52.953Z,19.40
2018-06-23T11:52:22.281Z,20.20
2018-06-23T11:54:51.469Z,20.00
2018-06-23T11:57:20.655Z,19.80
2018-06-23T11:59:50.100Z,19.60
2018-06-23T12:02:19.305Z,19.70
2018-06-23T12:04:48.604Z,20.40
2018-06-23T12:07:17.702Z,20.70
2018-06-23T12:09:46.933Z,20.10
2018-06-23T12:12:16.110Z,20.90
2018-06-23T12:14:45.248Z,21.00
2018-06-23T12:17:14.564Z,20.70
2018-06-23T12:19:43.777Z,20.30
2018-06-23T12:22:13.202Z,20.30
2018-06-23T12:24:42.293Z,20.80
2018-06-23T12:27:11.568Z,20.60
2018-06-23T12:29:40.943Z,20.10
2018-06-23T12:32:10.093Z,20.20
2018-06-23T12:34:39.149Z,19.50
2018-06-23T12:37:08.553Z,19.30
2018-06-23T12:39:37.826Z,18.60
2018-06-23T12:42:07.156Z,19.10
2018-06-23T12:44:36.560Z,19.90
2018-06-23T12:47:06.061Z,19.80
2018-06-23T12:49:35.388Z,20.40
2018-06-23T12:52:04.757Z,20.50
2018-06-23T12:54:33.925Z,20.60
2018-06-23T12:57:03.389Z,20.60
2018-06-23T12:59:32.744Z,19.60
2018-06-23T13:02:02.476Z,19.90
2018-06-23T13:04:31.809Z,19.90
2018-06-23T13:07:01.130Z,19.90
2018-06-23T13:09:30.298Z,19.80
2018-06-23T13:11:59.536Z,19.90
2018-06-23T13:14:28.609Z,19.60
2018-06-23T13:16:57.872Z,19.70
2018-06-23T13:19:26.925Z,19.90
2018-06-23T13:21:56.076Z,20.40
2018-06-23T13:24:25.280Z,20.00
2018-06-23T13:26:54.484Z,20.20
2018-06-23T13:29:23.976Z,20.50
2018-06-23T13:31:53.220Z,20.40
2018-06-23T13:34:22.549Z,21.50
2018-06-23T13:36:51.920Z,21.30
2018-06-23T13:39:21.506Z,21.80
2018-06-23T13:41:50.537Z,21.50
2018-06-23T13:44:19.664Z,20.70
2018-06-23T13:46:48.976Z,21.50
2018-06-23T13:49:18.307Z,21.40
2018-06-23T13:51:47.581Z,20.90
2018-06-23T13:54:16.721Z,19.90
2018-06-23T13:56:45.990Z,20.10
2018-06-23T13:59:15.254Z,20.80
2018-06-23T14:01:44.420Z,20.50
2018-06-23T14:04:13.772Z,21.00
2018-06-23T14:06:43.052Z,21.40
2018-06-23T14:09:13.160Z,21.20
2018-06-23T14:11:42.384Z,21.40
2018-06-23T14:14:11.666Z,22.20
2018-06-23T14:16:40.796Z,21.60
2018-06-23T14:19:10.057Z,21.00
2018-06-23T14:21:39.226Z,21.40
2018-06-23T14:24:08.676Z,20.90
2018-06-23T14:26:38.073Z,21.00
2018-06-23T14:29:07.641Z,21.40
2018-06-23T14:31:37.265Z,21.80
2018-06-23T14:34:06.736Z,21.90
2018-06-23T14:36:36.092Z,21.60
2018-06-23T14:39:08.252Z,21.60
2018-06-23T14:41:37.387Z,21.10
2018-06-23T14:44:06.630Z,20.90
2018-06-23T14:46:36.172Z,20.80
2018-06-23T14:49:05.456Z,20.70
2018-06-23T14:51:34.917Z,20.70
2018-06-23T14:54:04.421Z,20.70
2018-06-23T14:56:33.876Z,21.10
2018-06-23T14:59:03.460Z,20.60
2018-06-23T15:01:33.073Z,20.60
2018-06-23T15:04:02.481Z,20.80
2018-06-23T15:06:31.891Z,20.90
2018-06-23T15:09:12.036Z,20.20
2018-06-23T15:11:52.240Z,20.70
2018-06-23T15:14:21.418Z,21.00
2018-06-23T15:16:50.756Z,20.80
2018-06-23T15:19:20.037Z,20.50
2018-06-23T15:21:49.392Z,20.70
2018-06-23T15:24:18.574Z,20.70
2018-06-23T15:26:48.009Z,20.90
2018-06-23T15:29:17.332Z,20.90
2018-06-23T15:31:46.652Z,20.50
2018-06-23T15:34:15.700Z,20.90
2018-06-23T15:36:44.969Z,20.40
2018-06-23T15:39:14.230Z,20.60
2018-06-23T15:41:43.376Z,20.70
2018-06-23T15:44:12.547Z,20.70
2018-06-23T15:46:41.804Z,20.40
2018-06-23T15:49:11.333Z,20.70
2018-06-23T15:51:40.841Z,21.10
2018-06-23T15:54:10.009Z,21.10
2018-06-23T15:56:39.244Z,21.20
2018-06-23T15:59:08.424Z,20.80
2018-06-23T16:01:37.936Z,20.90
2018-06-23T16:04:07.296Z,21.40
2018-06-23T16:06:36.995Z,21.40
2018-06-23T16:09:09.088Z,21.50
2018-06-23T16:11:38.318Z,21.20
2018-06-23T16:14:07.669Z,21.60
2018-06-23T16:16:37.081Z,22.00
2018-06-23T16:19:06.331Z,21.60
2018-06-23T16:21:35.737Z,21.50
2018-06-23T16:24:05.055Z,20.80
2018-06-23T16:26:34.248Z,21.00
2018-06-23T16:29:03.833Z,20.60
2018-06-23T16:31:33.430Z,20.00
2018-06-23T16:34:03.230Z,19.80
2018-06-23T16:36:32.425Z,19.90
2018-06-23T16:39:01.870Z,19.90
2018-06-23T16:41:31.176Z,19.70
2018-06-23T16:44:00.397Z,20.00
2018-06-23T16:46:29.553Z,20.20
2018-06-23T16:48:59.021Z,20.20
2018-06-23T16:51:28.432Z,20.30
2018-06-23T16:53:57.528Z,20.30
2018-06-23T16:56:26.597Z,19.50
2018-06-23T16:58:55.964Z,20.00
2018-06-23T17:01:25.225Z,20.30
2018-06-23T17:03:54.513Z,20.50
2018-06-23T17:06:23.871Z,20.40
2018-06-23T17:08:53.056Z,20.60
2018-06-23T17:11:22.246Z,19.80
2018-06-23T17:13:51.541Z,20.20
2018-06-23T17:16:20.945Z,20.10
2018-06-23T17:18:50.365Z,19.90
2018-06-23T17:21:19.579Z,19.60
2018-06-23T17:23:48.779Z,20.10
2018-06-23T17:26:17.988Z,20.10
2018-06-23T17:28:47.148Z,20.30
2018-06-23T17:31:16.517Z,20.50
2018-06-23T17:33:45.882Z,21.20
2018-06-23T17:36:15.505Z,21.40
2018-06-23T17:38:44.862Z,21.30
2018-06-23T17:41:14.274Z,21.40
2018-06-23T17:43:43.464Z,20.50
2018-06-23T17:46:12.976Z,20.80
2018-06-23T17:48:42.204Z,20.70
2018-06-23T17:51:11.508Z,21.20
2018-06-23T17:53:40.813Z,21.70
2018-06-23T17:56:10.057Z,21.40
2018-06-23T17:58:39.205Z,21.20
2018-06-23T18:01:08.468Z,21.80
2018-06-23T18:03:37.836Z,22.10
2018-06-23T18:06:07.089Z,22.10
2018-06-23T18:08:36.301Z,21.50
2018-06-23T18:11:05.510Z,21.40
2018-06-23T18:13:34.833Z,21.20
2018-06-23T18:16:04.150Z,20.90
2018-06-23T18:18:33.422Z,20.90
2018-06-23T18:21:02.770Z,20.80
2018-06-23T18:23:32.033Z,20.70
2018-06-23T18:26:01.389Z,20.80
2018-06-23T18:28:30.560Z,20.60
2018-06-23T18:30:59.873Z,20.80
2018-06-23T18:33:29.113Z,20.60
2018-06-23T18:35:58.303Z,20.10
2018-06-23T18:38:27.549Z,20.20
2018-06-23T18:40:56.865Z,20.20
2018-06-23T18:43:26.068Z,19.90
2018-06-23T18:45:55.565Z,20.10
2018-06-23T18:48:24.894Z,20.10
2018-06-23T18:50:54.069Z,20.00
2018-06-23T18:53:23.292Z,19.90
2018-06-23T18:55:52.484Z,19.90
2018-06-23T18:58:21.825Z,19.80
2018-06-23T19:00:51.100Z,19.80
2018-06-23T19:03:20.548Z,19.70
2018-06-23T19:05:49.928Z,19.70
2018-06-23T19:08:19.180Z,19.70
2018-06-23T19:10:48.354Z,19.60
2018-06-23T19:13:17.605Z,19.30
2018-06-23T19:15:46.659Z,19.40
2018-06-23T19:18:15.916Z,19.40
2018-06-23T19:20:45.223Z,19.30
2018-06-23T19:23:14.544Z,19.30
2018-06-23T19:25:43.758Z,19.30
2018-06-23T19:28:13.163Z,19.30
2018-06-23T19:30:42.440Z,19.20
2018-06-23T19:33:11.797Z,19.20
2018-06-23T19:35:41.048Z,19.20
2018-06-23T19:38:10.070Z,19.20
2018-06-23T19:40:39.524Z,19.20
2018-06-23T19:43:08.696Z,19.20
2018-06-23T19:45:38.754Z,19.10
2018-06-23T19:48:08.032Z,19.10
2018-06-23T19:50:37.083Z,19.10
2018-06-23T19:53:06.252Z,19.10
2018-06-23T19:55:35.609Z,19.10
2018-06-23T19:58:04.882Z,19.10
2018-06-23T20:00:34.116Z,19.10
2018-06-23T20:03:03.404Z,19.10
2018-06-23T20:05:32.755Z,19.10
2018-06-23T20:08:02.064Z,19.10
2018-06-23T20:10:31.484Z,19.10
2018-06-23T20:13:00.792Z,19.10
2018-06-23T20:15:30.208Z,19.10
2018-06-23T20:17:59.693Z,19.10
2018-06-23T20:20:28.928Z,19.10
2018-06-23T20:22:58.003Z,19.10
2018-06-23T20:25:27.226Z,19.10
2018-06-23T20:27:56.520Z,19.10
2018-06-23T20:30:25.616Z,19.10
2018-06-23T20:32:54.886Z,19.10
2018-06-23T20:35:24.212Z,19.10
2018-06-23T20:37:53.578Z,19.20
2018-06-23T20:40:23.020Z,19.10
2018-06-23T20:42:52.232Z,19.10
2018-06-23T20:45:21.644Z,19.10
2018-06-23T20:47:50.709Z,19.00
2018-06-23T20:50:20.041Z,19.00
2018-06-23T20:52:49.276Z,18.90
2018-06-23T20:55:18.448Z,18.80
2018-06-23T20:57:47.804Z,18.70
2018-06-23T21:00:17.073Z,18.70
2018-06-23T21:02:46.428Z,18.70
2018-06-23T21:05:15.596Z,18.60
2018-06-23T21:07:44.732Z,18.60
2018-06-23T21:10:25.232Z,18.70
2018-06-23T21:12:54.743Z,18.70
2018-06-23T21:15:24.129Z,18.70
2018-06-23T21:17:53.259Z,18.80
2018-06-23T21:20:22.425Z,18.70
2018-06-23T21:22:51.789Z,18.50
2018-06-23T21:25:20.997Z,18.50
2018-06-23T21:27:50.187Z,18.50
2018-06-23T21:30:19.348Z,18.60
2018-06-23T21:32:48.629Z,18.30
2018-06-23T21:35:18.003Z,18.00
2018-06-23T21:37:47.362Z,17.50
2018-06-23T21:40:16.534Z,17.80
2018-06-23T21:42:45.664Z,18.40
2018-06-23T21:45:15.089Z,17.10
2018-06-23T21:47:44.205Z,16.10
2018-06-23T21:50:13.404Z,16.20
2018-06-23T21:52:42.568Z,16.70
2018-06-23T21:55:11.692Z,16.80
2018-06-23T21:57:40.779Z,17.30
2018-06-23T22:00:19.739Z,18.10
2018-06-23T22:02:49.036Z,18.60
2018-06-23T22:05:18.272Z,18.90
2018-06-23T22:07:47.421Z,19.00
2018-06-23T22:10:16.708Z,18.80
2018-06-23T22:12:46.238Z,18.80
2018-06-23T22:15:15.741Z,18.40
2018-06-23T22:17:45.071Z,18.70
2018-06-23T22:20:14.358Z,18.80
2018-06-23T22:22:43.524Z,18.70
2018-06-23T22:25:12.940Z,17.70
2018-06-23T22:27:42.433Z,17.10
2018-06-23T22:30:11.780Z,16.80
2018-06-23T22:32:40.984Z,17.70
2018-06-23T22:35:10.493Z,17.80
2018-06-23T22:37:40.029Z,18.00
2018-06-23T22:40:09.769Z,18.40
2018-06-23T22:42:39.062Z,18.60
2018-06-23T22:45:08.556Z,18.70
2018-06-23T22:47:37.884Z,18.80
2018-06-23T22:50:10.793Z,18.70
2018-06-23T22:52:40.101Z,18.60
2018-06-23T22:55:10.315Z,18.70
2018-06-23T22:57:39.660Z,18.80
2018-06-23T23:00:11.932Z,16.60
2018-06-23T23:02:41.324Z,16.90
2018-06-23T23:05:10.856Z,17.50
2018-06-23T23:07:40.737Z,18.20
2018-06-23T23:10:10.938Z,18.50
2018-06-23T23:12:40.511Z,18.60
2018-06-23T23:15:09.875Z,18.60
2018-06-23T23:17:39.197Z,18.60
2018-06-23T23:20:08.585Z,18.60
2018-06-23T23:22:37.907Z,18.80
2018-06-23T23:25:07.096Z,18.90
2018-06-23T23:27:36.762Z,18.80
2018-06-23T23:30:07.373Z,18.80
2018-06-23T23:32:36.725Z,18.80
2018-06-23T23:35:05.908Z,18.80
2018-06-23T23:37:35.456Z,18.70
2018-06-23T23:40:05.081Z,18.70
2018-06-23T23:42:34.372Z,18.60
2018-06-23T23:45:03.657Z,18.60
2018-06-23T23:47:32.909Z,18.60
2018-06-23T23:50:02.282Z,18.60
2018-06-23T23:52:31.701Z,18.60
2018-06-23T23:55:01.273Z,18.70
2018-06-23T23:57:30.629Z,18.80
2018-06-23T23:59:59.822Z,18.50
